createdAt,value
2022-12-18T00:00:01.425Z,28.13
2022-12-18T00:02:28.447Z,19.15
2022-12-18T00:05:00.442Z,30.33
2022-12-18T00:07:27.417Z,27.02
2022-12-18T00:09:54.294Z,22.08
2022-12-18T00:12:21.143Z,26.83
2022-12-18T00:14:48.067Z,23.20
2022-12-18T00:17:14.896Z,27.00
2022-12-18T00:19:41.833Z,29.75
2022-12-18T00:22:08.963Z,26.48
2022-12-18T00:24:38.433Z,28.02
2022-12-18T00:27:07.369Z,24.75
2022-12-18T00:29:34.426Z,28.20
2022-12-18T00:32:03.535Z,27.63
2022-12-18T00:34:30.625Z,34.20
2022-12-18T00:36:57.466Z,35.35
2022-12-18T00:39:24.369Z,32.03
2022-12-18T00:42:12.100Z,24.98
2022-12-18T00:44:39.103Z,27.45
2022-12-18T00:47:06.063Z,27.67
2022-12-18T00:49:35.016Z,30.50
2022-12-18T00:52:04.347Z,30.00
2022-12-18T00:54:33.615Z,31.08
2022-12-18T00:57:03.655Z,30.23
2022-12-18T00:59:33.620Z,43.45
2022-12-18T01:02:00.614Z,26.65
2022-12-18T01:04:33.339Z,25.88
2022-12-18T01:07:00.313Z,22.90
2022-12-18T01:09:27.343Z,25.50
2022-12-18T01:11:57.301Z,36.95
2022-12-18T01:14:27.307Z,28.27
2022-12-18T01:16:57.139Z,26.45
2022-12-18T01:19:26.180Z,29.45
2022-12-18T01:21:55.203Z,30.38
2022-12-18T01:24:22.171Z,21.15
2022-12-18T01:26:49.180Z,29.98
2022-12-18T01:29:16.094Z,24.17
2022-12-18T01:31:45.614Z,31.75
2022-12-18T01:34:12.679Z,36.85
2022-12-18T01:36:40.442Z,32.72
2022-12-18T01:39:15.992Z,32.72
2022-12-18T01:42:06.564Z,28.13
2022-12-18T01:44:57.037Z,26.35
2022-12-18T01:47:45.032Z,28.08
2022-12-18T01:50:22.376Z,25.75
2022-12-18T01:53:13.150Z,36.90
2022-12-18T01:55:50.101Z,26.85
2022-12-18T01:58:18.756Z,27.10
2022-12-18T02:00:46.287Z,28.73
2022-12-18T02:03:13.873Z,38.53
2022-12-18T02:05:53.265Z,26.23
2022-12-18T02:08:44.251Z,32.20
2022-12-18T02:11:52.125Z,27.73
2022-12-18T02:15:07.679Z,26.73
2022-12-18T02:18:00.121Z,32.33
2022-12-18T02:20:39.112Z,25.23
2022-12-18T02:23:33.800Z,36.10
2022-12-18T02:26:07.041Z,28.65
2022-12-18T02:28:43.642Z,32.60
2022-12-18T02:31:26.748Z,29.20
2022-12-18T02:34:03.774Z,28.35
2022-12-18T02:36:38.698Z,35.10
2022-12-18T02:39:08.310Z,27.50
2022-12-18T02:41:37.631Z,29.42
2022-12-18T02:44:16.143Z,28.52
2022-12-18T02:46:50.019Z,31.98
2022-12-18T02:49:46.135Z,27.42
2022-12-18T02:52:37.552Z,31.55
2022-12-18T02:55:13.771Z,35.28
2022-12-18T02:58:17.897Z,38.33
2022-12-18T03:01:11.149Z,30.02
2022-12-18T03:03:54.362Z,30.65
2022-12-18T03:06:31.485Z,29.10
2022-12-18T03:09:04.597Z,28.08
2022-12-18T03:11:54.121Z,36.40
2022-12-18T03:14:25.297Z,36.25
2022-12-18T03:17:02.402Z,31.52
2022-12-18T03:19:33.801Z,32.40
2022-12-18T03:22:06.904Z,28.05
2022-12-18T03:24:35.308Z,35.00
2022-12-18T03:27:10.855Z,33.63
2022-12-18T03:29:48.215Z,40.20
2022-12-18T03:32:30.705Z,33.63
2022-12-18T03:35:08.658Z,38.67
2022-12-18T03:37:36.477Z,33.60
2022-12-18T03:40:04.988Z,35.72
2022-12-18T03:42:46.733Z,27.77
2022-12-18T03:45:38.960Z,37.88
2022-12-18T03:48:17.428Z,32.63
2022-12-18T03:51:06.859Z,30.80
2022-12-18T03:54:03.982Z,26.75
2022-12-18T03:56:38.087Z,40.60
2022-12-18T03:59:07.032Z,31.00
2022-12-18T04:01:44.762Z,32.90
2022-12-18T04:04:15.977Z,27.95
2022-12-18T04:06:44.880Z,36.95
2022-12-18T04:09:11.904Z,33.95
2022-12-18T04:11:38.979Z,33.45
2022-12-18T04:14:09.892Z,34.83
2022-12-18T04:16:40.040Z,32.10
2022-12-18T04:19:06.951Z,29.20
2022-12-18T04:21:34.263Z,30.80
2022-12-18T04:24:01.252Z,35.88
2022-12-18T04:26:30.554Z,29.52
2022-12-18T04:29:00.360Z,29.65
2022-12-18T04:31:27.597Z,27.48
2022-12-18T04:33:57.502Z,40.28
2022-12-18T04:36:29.810Z,32.92
2022-12-18T04:38:57.180Z,31.67
2022-12-18T04:41:26.156Z,34.47
2022-12-18T04:43:53.424Z,33.72
2022-12-18T04:46:20.329Z,29.85
2022-12-18T04:48:48.090Z,31.20
2022-12-18T04:51:19.842Z,33.72
2022-12-18T04:53:50.191Z,30.95
2022-12-18T04:56:17.603Z,27.75
2022-12-18T04:58:47.751Z,30.15
2022-12-18T05:01:21.743Z,32.15
2022-12-18T05:03:48.841Z,33.00
2022-12-18T05:06:15.915Z,25.30
2022-12-18T05:08:42.786Z,27.02
2022-12-18T05:11:16.531Z,30.83
2022-12-18T05:13:46.571Z,31.85
2022-12-18T05:16:18.585Z,33.67
2022-12-18T05:18:45.519Z,24.80
2022-12-18T05:21:12.463Z,28.33
2022-12-18T05:23:39.686Z,28.33
2022-12-18T05:26:08.883Z,28.50
2022-12-18T05:28:37.546Z,27.40
2022-12-18T05:31:05.693Z,31.73
2022-12-18T05:33:35.515Z,32.78
2022-12-18T05:36:07.572Z,33.65
2022-12-18T05:38:37.630Z,26.85
2022-12-18T05:41:05.447Z,32.15
2022-12-18T05:43:32.454Z,32.95
2022-12-18T05:45:59.366Z,30.23
2022-12-18T05:48:26.204Z,32.40
2022-12-18T05:50:57.729Z,30.02
2022-12-18T05:53:24.572Z,28.50
2022-12-18T05:55:51.438Z,31.30
2022-12-18T05:58:20.785Z,28.55
2022-12-18T06:00:50.167Z,30.48
2022-12-18T06:03:17.137Z,30.50
2022-12-18T06:05:46.106Z,30.30
2022-12-18T06:08:14.158Z,30.95
2022-12-18T06:10:42.281Z,33.22
2022-12-18T06:13:09.570Z,30.83
2022-12-18T06:15:41.864Z,29.60
2022-12-18T06:18:08.682Z,29.88
2022-12-18T06:20:37.497Z,29.50
2022-12-18T06:23:07.149Z,30.52
2022-12-18T06:25:36.865Z,27.08
2022-12-18T06:28:04.301Z,36.13
2022-12-18T06:30:34.148Z,31.60
2022-12-18T06:33:01.011Z,25.15
2022-12-18T06:35:30.310Z,25.20
2022-12-18T06:37:57.143Z,25.63
2022-12-18T06:40:24.003Z,33.33
2022-12-18T06:42:53.274Z,31.05
2022-12-18T06:45:22.934Z,23.42
2022-12-18T06:47:49.857Z,33.97
2022-12-18T06:50:19.342Z,32.25
2022-12-18T06:52:46.382Z,29.40
2022-12-18T06:55:15.992Z,34.15
2022-12-18T06:57:42.840Z,37.67
2022-12-18T07:00:10.981Z,25.05
2022-12-18T07:02:37.897Z,28.70
2022-12-18T07:05:11.080Z,31.98
2022-12-18T07:07:38.516Z,32.97
2022-12-18T07:10:08.862Z,35.00
2022-12-18T07:12:36.420Z,33.65
2022-12-18T07:15:08.998Z,29.70
2022-12-18T07:17:38.292Z,30.20
2022-12-18T07:20:05.594Z,25.95
2022-12-18T07:22:32.541Z,30.05
2022-12-18T07:24:59.876Z,36.50
2022-12-18T07:27:28.894Z,31.05
2022-12-18T07:29:58.680Z,31.98
2022-12-18T07:32:25.858Z,28.17
2022-12-18T07:34:52.972Z,30.85
2022-12-18T07:37:19.825Z,34.53
2022-12-18T07:39:49.174Z,28.95
2022-12-18T07:42:32.785Z,31.17
2022-12-18T07:45:03.434Z,28.08
2022-12-18T07:47:37.972Z,33.63
2022-12-18T07:50:08.435Z,30.40
2022-12-18T07:52:38.387Z,30.83
2022-12-18T07:55:06.044Z,31.60
2022-12-18T07:57:55.432Z,33.47
2022-12-18T08:00:24.094Z,28.48
2022-12-18T08:02:54.299Z,28.08
2022-12-18T08:05:22.136Z,28.52
2022-12-18T08:07:49.449Z,30.08
2022-12-18T08:10:17.185Z,35.13
2022-12-18T08:12:44.466Z,32.97
2022-12-18T08:15:11.821Z,37.95
2022-12-18T08:17:41.209Z,31.92
2022-12-18T08:20:09.059Z,27.25
2022-12-18T08:22:40.000Z,30.30
2022-12-18T08:25:10.050Z,29.50
2022-12-18T08:27:37.398Z,30.60
2022-12-18T08:30:05.667Z,27.27
2022-12-18T08:32:36.331Z,31.67
2022-12-18T08:35:06.821Z,31.63
2022-12-18T08:37:36.166Z,29.37
2022-12-18T08:40:03.446Z,34.40
2022-12-18T08:42:56.202Z,30.87
2022-12-18T08:45:23.077Z,30.63
2022-12-18T08:47:49.908Z,30.80
2022-12-18T08:50:17.402Z,34.90
2022-12-18T08:52:44.541Z,29.10
2022-12-18T08:55:11.442Z,32.83
2022-12-18T08:57:38.309Z,30.33
2022-12-18T09:00:06.142Z,32.60
2022-12-18T09:02:35.690Z,33.43
2022-12-18T09:05:05.652Z,30.07
2022-12-18T09:07:32.546Z,32.83
2022-12-18T09:09:59.370Z,31.43
2022-12-18T09:12:26.651Z,36.33
2022-12-18T09:14:53.520Z,28.50
2022-12-18T09:17:20.385Z,28.90
2022-12-18T09:19:51.776Z,32.93
2022-12-18T09:22:18.661Z,30.83
2022-12-18T09:24:47.741Z,36.10
2022-12-18T09:27:14.745Z,31.30
2022-12-18T09:29:44.556Z,33.27
2022-12-18T09:32:18.974Z,36.43
2022-12-18T09:34:49.034Z,32.73
2022-12-18T09:37:18.923Z,34.03
2022-12-18T09:39:45.779Z,29.60
2022-12-18T09:42:23.087Z,36.53
2022-12-18T09:44:55.840Z,26.40
2022-12-18T09:47:26.799Z,32.80
2022-12-18T09:50:28.276Z,37.33
2022-12-18T09:53:00.634Z,35.87
2022-12-18T09:55:38.020Z,35.70
2022-12-18T09:58:11.096Z,30.93
2022-12-18T10:00:38.165Z,37.87
2022-12-18T10:03:12.550Z,35.53
2022-12-18T10:06:16.641Z,35.53
2022-12-18T10:09:15.240Z,35.00
2022-12-18T10:12:17.301Z,39.10
2022-12-18T10:14:52.155Z,33.50
2022-12-18T10:17:57.303Z,35.60
2022-12-18T10:20:50.157Z,37.57
2022-12-18T10:23:58.873Z,35.57
2022-12-18T10:26:26.018Z,40.30
2022-12-18T10:28:54.855Z,41.03
2022-12-18T10:31:25.165Z,38.80
2022-12-18T10:33:55.354Z,34.53
2022-12-18T10:36:25.640Z,34.20
2022-12-18T10:38:55.020Z,31.40
2022-12-18T10:41:26.859Z,32.27
2022-12-18T10:44:29.620Z,36.60
2022-12-18T10:47:10.128Z,34.27
2022-12-18T10:49:50.321Z,35.23
2022-12-18T10:52:23.217Z,31.63
2022-12-18T10:55:02.691Z,33.87
2022-12-18T10:57:39.594Z,37.10
2022-12-18T11:00:31.609Z,34.70
2022-12-18T11:02:59.204Z,31.03
2022-12-18T11:05:38.266Z,34.30
2022-12-18T11:08:05.319Z,30.20
2022-12-18T11:10:37.061Z,32.73
2022-12-18T11:13:22.780Z,31.20
2022-12-18T11:15:52.794Z,31.07
2022-12-18T11:18:46.118Z,44.33
2022-12-18T11:21:17.932Z,28.10
2022-12-18T11:23:53.493Z,32.90
2022-12-18T11:26:22.545Z,33.47
2022-12-18T11:29:09.787Z,32.53
2022-12-18T11:31:37.124Z,39.30
2022-12-18T11:34:29.129Z,32.03
2022-12-18T11:36:59.200Z,33.60
2022-12-18T11:39:40.474Z,32.00
2022-12-18T11:42:21.622Z,36.60
2022-12-18T11:44:52.209Z,30.37
2022-12-18T11:47:57.964Z,36.60
2022-12-18T11:50:27.722Z,33.63
2022-12-18T11:52:59.255Z,34.43
2022-12-18T11:55:41.694Z,31.07
2022-12-18T11:58:12.002Z,30.80
2022-12-18T12:01:21.029Z,31.40
2022-12-18T12:04:13.863Z,31.57
2022-12-18T12:06:50.027Z,29.07
2022-12-18T12:09:20.270Z,29.27
2022-12-18T12:12:18.121Z,32.60
2022-12-18T12:15:44.411Z,43.47
2022-12-18T12:18:38.559Z,29.60
2022-12-18T12:22:03.345Z,28.17
2022-12-18T12:24:59.908Z,29.77
2022-12-18T12:27:51.290Z,41.37
2022-12-18T12:30:22.498Z,30.27
2022-12-18T12:33:01.737Z,31.07
2022-12-18T12:36:23.099Z,31.50
2022-12-18T12:38:58.680Z,33.37
2022-12-18T12:41:53.569Z,34.00
2022-12-18T12:44:35.570Z,32.20
2022-12-18T12:47:18.841Z,36.10
2022-12-18T12:49:49.293Z,36.70
2022-12-18T12:52:43.372Z,40.83
2022-12-18T12:55:19.470Z,36.37
2022-12-18T12:58:19.015Z,36.40
2022-12-18T13:01:35.703Z,37.87
2022-12-18T13:04:11.574Z,46.73
2022-12-18T13:07:15.952Z,47.43
2022-12-18T13:13:18.744Z,35.03
2022-12-18T13:16:08.634Z,36.40
2022-12-18T13:18:36.224Z,40.43
2022-12-18T13:21:30.612Z,34.53
2022-12-18T13:23:58.841Z,43.37
2022-12-18T13:26:32.136Z,40.13
2022-12-18T13:29:00.468Z,39.47
2022-12-18T13:31:43.474Z,41.20
2022-12-18T13:34:27.752Z,35.13
2022-12-18T13:37:38.162Z,36.37
2022-12-18T13:40:40.836Z,38.40
2022-12-18T13:43:20.252Z,33.73
2022-12-18T13:46:25.322Z,39.83
2022-12-18T13:49:27.514Z,41.60
2022-12-18T13:51:58.702Z,37.80
2022-12-18T13:54:36.795Z,42.30
2022-12-18T13:57:07.552Z,44.40
2022-12-18T13:59:40.153Z,35.73
2022-12-18T14:02:20.433Z,40.30
2022-12-18T14:04:51.875Z,38.23
2022-12-18T14:07:26.305Z,46.10
2022-12-18T14:10:18.649Z,40.77
2022-12-18T14:13:01.289Z,36.40
2022-12-18T14:15:50.287Z,44.47
2022-12-18T14:18:59.112Z,39.92
2022-12-18T14:21:36.506Z,34.27
2022-12-18T14:24:19.524Z,39.47
2022-12-18T14:26:50.435Z,46.23
2022-12-18T14:29:31.983Z,39.10
2022-12-18T14:32:14.901Z,37.77
2022-12-18T14:34:47.674Z,43.50
2022-12-18T14:37:22.647Z,40.40
2022-12-18T14:39:59.383Z,41.90
2022-12-18T14:42:30.698Z,46.73
2022-12-18T14:45:44.384Z,36.53
2022-12-18T14:48:42.263Z,36.67
2022-12-18T14:51:23.649Z,34.80
2022-12-18T14:53:56.475Z,44.83
2022-12-18T14:56:33.746Z,42.83
2022-12-18T14:59:06.307Z,36.73
2022-12-18T15:01:43.752Z,36.97
2022-12-18T15:04:29.051Z,41.10
2022-12-18T15:07:07.584Z,44.93
2022-12-18T15:09:37.684Z,37.85
2022-12-18T15:12:05.971Z,35.93
2022-12-18T15:14:54.508Z,36.13
2022-12-18T15:17:25.793Z,45.05
2022-12-18T15:20:02.059Z,38.43
2022-12-18T15:22:37.262Z,37.67
2022-12-18T15:25:30.093Z,34.65
2022-12-18T15:27:57.466Z,34.08
2022-12-18T15:30:28.104Z,34.75
2022-12-18T15:33:30.147Z,38.10
2022-12-18T15:36:09.935Z,35.00
2022-12-18T15:38:38.683Z,28.35
2022-12-18T15:41:13.969Z,31.55
2022-12-18T15:43:43.487Z,31.98
2022-12-18T15:46:15.602Z,30.02
2022-12-18T15:48:46.371Z,37.85
2022-12-18T15:51:18.937Z,28.35
2022-12-18T15:53:49.824Z,31.20
2022-12-18T15:56:36.904Z,32.38
2022-12-18T15:59:13.491Z,35.15
2022-12-18T16:01:42.835Z,31.27
2022-12-18T16:04:15.106Z,31.83
2022-12-18T16:07:13.928Z,30.05
2022-12-18T16:09:37.405Z,27.83
2022-12-18T16:12:13.281Z,33.08
2022-12-18T16:14:42.589Z,35.20
2022-12-18T16:17:13.697Z,33.10
2022-12-18T16:19:46.917Z,34.45
2022-12-18T16:22:28.086Z,31.02
2022-12-18T16:24:57.934Z,30.65
2022-12-18T16:27:28.228Z,31.58
2022-12-18T16:29:56.944Z,24.63
2022-12-18T16:32:24.660Z,31.73
2022-12-18T16:34:52.140Z,29.13
2022-12-18T16:37:20.031Z,24.35
2022-12-18T16:39:50.185Z,22.63
2022-12-18T16:42:21.382Z,30.75
2022-12-18T16:44:50.694Z,33.03
2022-12-18T16:47:21.115Z,27.80
2022-12-18T16:49:52.015Z,26.50
2022-12-18T16:52:20.373Z,21.60
2022-12-18T16:54:47.836Z,24.87
2022-12-18T16:57:21.656Z,24.80
2022-12-18T16:59:53.260Z,21.35
2022-12-18T17:02:25.608Z,23.67
2022-12-18T17:05:01.396Z,30.13
2022-12-18T17:07:29.504Z,25.98
2022-12-18T17:09:57.177Z,21.80
2022-12-18T17:12:30.047Z,23.92
2022-12-18T17:14:57.090Z,25.85
2022-12-18T17:17:24.334Z,23.48
2022-12-18T17:19:52.858Z,22.15
2022-12-18T17:22:22.119Z,21.15
2022-12-18T17:24:49.359Z,21.20
2022-12-18T17:27:16.880Z,24.80
2022-12-18T17:29:48.036Z,23.13
2022-12-18T17:32:18.405Z,22.55
2022-12-18T17:34:46.009Z,25.05
2022-12-18T17:37:13.611Z,21.25
2022-12-18T17:39:40.714Z,18.10
2022-12-18T17:42:14.594Z,16.97
2022-12-18T17:44:43.989Z,20.17
2022-12-18T17:47:15.440Z,21.45
2022-12-18T17:49:42.870Z,18.23
2022-12-18T17:52:10.892Z,21.98
2022-12-18T17:54:42.525Z,16.98
2022-12-18T17:57:10.443Z,17.30
2022-12-18T17:59:37.660Z,19.40
2022-12-18T18:02:04.958Z,19.17
2022-12-18T18:04:32.497Z,17.93
2022-12-18T18:06:59.703Z,21.02
2022-12-18T18:09:30.051Z,17.00
2022-12-18T18:12:15.836Z,20.30
2022-12-18T18:14:43.484Z,18.17
2022-12-18T18:17:11.027Z,17.63
2022-12-18T18:19:40.411Z,23.02
2022-12-18T18:22:11.247Z,14.98
2022-12-18T18:24:38.755Z,18.80
2022-12-18T18:27:06.193Z,16.08
2022-12-18T18:29:33.393Z,17.02
2022-12-18T18:32:00.681Z,18.17
2022-12-18T18:34:32.844Z,21.38
2022-12-18T18:37:01.477Z,15.82
2022-12-18T18:39:29.059Z,18.20
2022-12-18T18:41:59.741Z,13.73
2022-12-18T18:44:26.889Z,19.02
2022-12-18T18:46:58.491Z,20.30
2022-12-18T18:49:28.870Z,15.75
2022-12-18T18:52:02.878Z,19.38
2022-12-18T18:54:31.248Z,18.83
2022-12-18T18:59:50.107Z,20.92
2022-12-18T19:02:20.180Z,19.75
2022-12-18T19:04:47.381Z,15.23
2022-12-18T19:07:29.784Z,20.67
2022-12-18T19:10:04.035Z,17.60
2022-12-18T19:12:53.106Z,19.30
2022-12-18T19:15:20.232Z,20.88
2022-12-18T19:17:49.636Z,23.40
2022-12-18T19:20:19.488Z,19.30
2022-12-18T19:22:55.031Z,20.23
2022-12-18T19:25:40.531Z,18.60
2022-12-18T19:28:10.020Z,20.10
2022-12-18T19:30:58.910Z,24.05
2022-12-18T19:33:44.624Z,23.23
2022-12-18T19:36:24.004Z,25.65
2022-12-18T19:38:54.506Z,26.70
2022-12-18T19:41:23.278Z,21.70
2022-12-18T19:43:54.930Z,25.03
2022-12-18T19:46:24.216Z,19.73
2022-12-18T19:48:51.974Z,24.48
2022-12-18T19:51:26.656Z,25.30
2022-12-18T19:53:59.080Z,26.40
2022-12-18T19:56:32.731Z,25.48
2022-12-18T19:59:03.471Z,27.95
2022-12-18T20:01:31.583Z,24.02
2022-12-18T20:04:01.065Z,23.97
2022-12-18T20:06:51.828Z,29.95
2022-12-18T20:09:20.366Z,25.65
2022-12-18T20:11:48.327Z,26.35
2022-12-18T20:14:19.659Z,22.52
2022-12-18T20:16:56.529Z,28.03
2022-12-18T20:19:29.708Z,21.83
2022-12-18T20:21:59.867Z,23.57
2022-12-18T20:24:27.853Z,24.77
2022-12-18T20:26:56.115Z,28.48
2022-12-18T20:29:23.170Z,27.75
2022-12-18T20:31:50.310Z,19.83
2022-12-18T20:34:19.490Z,21.73
2022-12-18T20:36:47.711Z,24.23
2022-12-18T20:39:17.797Z,26.13
2022-12-18T20:41:47.651Z,24.43
2022-12-18T20:44:23.040Z,31.58
2022-12-18T20:46:57.620Z,27.02
2022-12-18T20:49:26.508Z,28.63
2022-12-18T20:51:56.541Z,26.13
2022-12-18T20:54:28.908Z,22.73
2022-12-18T20:56:56.836Z,32.00
2022-12-18T20:59:26.048Z,30.70
2022-12-18T21:01:54.444Z,25.50
2022-12-18T21:04:22.906Z,24.88
2022-12-18T21:06:56.800Z,30.20
2022-12-18T21:09:38.642Z,26.67
2022-12-18T21:12:42.626Z,26.63
2022-12-18T21:15:28.202Z,28.55
2022-12-18T21:17:55.832Z,24.38
2022-12-18T21:20:22.962Z,23.27
2022-12-18T21:22:50.063Z,26.30
2022-12-18T21:25:19.648Z,29.92
2022-12-18T21:27:46.651Z,24.90
2022-12-18T21:30:16.677Z,27.23
2022-12-18T21:32:46.727Z,29.13
2022-12-18T21:35:13.761Z,28.27
2022-12-18T21:37:42.154Z,25.23
2022-12-18T21:40:10.097Z,29.05
2022-12-18T21:42:56.539Z,28.40
2022-12-18T21:45:26.666Z,31.83
2022-12-18T21:47:53.567Z,28.33
2022-12-18T21:50:21.001Z,21.97
2022-12-18T21:52:47.866Z,25.23
2022-12-18T21:55:15.376Z,29.95
2022-12-18T21:57:42.244Z,28.77
2022-12-18T22:00:18.638Z,32.03
2022-12-18T22:02:47.723Z,31.52
2022-12-18T22:05:19.432Z,27.35
2022-12-18T22:07:46.542Z,26.77
2022-12-18T22:10:16.711Z,29.97
2022-12-18T22:12:48.608Z,23.83
2022-12-18T22:15:18.302Z,28.80
2022-12-18T22:17:50.533Z,28.63
2022-12-18T22:20:20.563Z,30.17
2022-12-18T22:22:51.903Z,34.00
2022-12-18T22:25:24.393Z,30.97
2022-12-18T22:28:10.906Z,25.60
2022-12-18T22:30:40.465Z,26.70
2022-12-18T22:33:07.953Z,31.03
2022-12-18T22:35:35.099Z,27.27
2022-12-18T22:38:03.325Z,28.67
2022-12-18T22:40:30.350Z,25.80
2022-12-18T22:42:57.350Z,21.70
2022-12-18T22:45:28.520Z,24.53
2022-12-18T22:47:55.580Z,23.57
2022-12-18T22:50:25.581Z,29.83
2022-12-18T22:52:52.498Z,28.03
2022-12-18T22:55:19.955Z,25.90
2022-12-18T22:57:54.414Z,25.92
2022-12-18T23:00:24.638Z,27.83
2022-12-18T23:02:59.829Z,34.07
2022-12-18T23:05:29.759Z,28.83
2022-12-18T23:07:56.803Z,26.03
2022-12-18T23:10:23.994Z,28.93
2022-12-18T23:12:51.025Z,37.73
2022-12-18T23:15:22.862Z,23.93
2022-12-18T23:17:56.589Z,27.87
2022-12-18T23:20:23.463Z,26.40
2022-12-18T23:22:53.384Z,28.10
2022-12-18T23:25:23.079Z,27.20
2022-12-18T23:27:52.503Z,26.60
2022-12-18T23:30:19.380Z,27.70
2022-12-18T23:32:46.380Z,28.10
2022-12-18T23:35:13.338Z,28.10
2022-12-18T23:38:01.074Z,30.57
2022-12-18T23:40:30.578Z,25.80
2022-12-18T23:42:59.404Z,26.20
2022-12-18T23:45:26.508Z,29.55
2022-12-18T23:47:53.377Z,28.50
2022-12-18T23:50:23.628Z,27.05
2022-12-18T23:52:57.474Z,27.07
2022-12-18T23:55:31.346Z,25.53
2022-12-18T23:57:58.602Z,24.23
